sensor_id;sensor_type;location;lat;lon;timestamp;P1;durP1;ratioP1;P2;durP2;ratioP2
9260;SDS011;4667;42.726;23.252;2022-10-31T00:00:46;4.37;;;2.50;;
9260;SDS011;4667;42.726;23.252;2022-10-31T00:03:15;3.60;;;3.10;;
9260;SDS011;4667;42.726;23.252;2022-10-31T00:05:42;6.47;;;3.20;;
9260;SDS011;4667;42.726;23.252;2022-10-31T00:08:10;4.30;;;2.73;;
9260;SDS011;4667;42.726;23.252;2022-10-31T00:10:37;5.33;;;2.50;;
9260;SDS011;4667;42.726;23.252;2022-10-31T00:13:06;2.70;;;2.37;;
9260;SDS011;4667;42.726;23.252;2022-10-31T00:15:34;6.57;;;3.20;;
9260;SDS011;4667;42.726;23.252;2022-10-31T00:18:01;5.00;;;3.13;;
9260;SDS011;4667;42.726;23.252;2022-10-31T00:20:28;6.20;;;2.87;;
9260;SDS011;4667;42.726;23.252;2022-10-31T00:22:57;3.87;;;2.83;;
9260;SDS011;4667;42.726;23.252;2022-10-31T00:25:24;8.00;;;3.27;;
9260;SDS011;4667;42.726;23.252;2022-10-31T00:27:50;9.17;;;3.07;;
9260;SDS011;4667;42.726;23.252;2022-10-31T00:30:19;5.07;;;2.73;;
9260;SDS011;4667;42.726;23.252;2022-10-31T00:32:46;3.10;;;2.67;;
9260;SDS011;4667;42.726;23.252;2022-10-31T00:35:12;3.67;;;2.73;;
9260;SDS011;4667;42.726;23.252;2022-10-31T00:37:39;5.27;;;2.93;;
9260;SDS011;4667;42.726;23.252;2022-10-31T00:40:06;3.13;;;2.43;;
9260;SDS011;4667;42.726;23.252;2022-10-31T00:42:34;5.13;;;2.80;;
9260;SDS011;4667;42.726;23.252;2022-10-31T00:45:01;5.17;;;2.37;;
9260;SDS011;4667;42.726;23.252;2022-10-31T00:47:29;5.67;;;2.70;;
9260;SDS011;4667;42.726;23.252;2022-10-31T00:49:56;4.67;;;3.20;;
9260;SDS011;4667;42.726;23.252;2022-10-31T00:52:23;3.10;;;2.77;;
9260;SDS011;4667;42.726;23.252;2022-10-31T00:54:50;3.07;;;2.67;;
9260;SDS011;4667;42.726;23.252;2022-10-31T00:57:17;4.20;;;2.50;;
9260;SDS011;4667;42.726;23.252;2022-10-31T00:59:43;3.20;;;2.47;;
9260;SDS011;4667;42.726;23.252;2022-10-31T01:02:10;3.73;;;2.67;;
9260;SDS011;4667;42.726;23.252;2022-10-31T01:04:38;3.23;;;2.27;;
9260;SDS011;4667;42.726;23.252;2022-10-31T01:07:05;5.20;;;2.27;;
9260;SDS011;4667;42.726;23.252;2022-10-31T01:09:32;2.83;;;2.53;;
9260;SDS011;4667;42.726;23.252;2022-10-31T01:11:58;6.00;;;2.57;;
9260;SDS011;4667;42.726;23.252;2022-10-31T01:14:25;4.40;;;2.20;;
9260;SDS011;4667;42.726;23.252;2022-10-31T01:16:52;3.40;;;2.40;;
9260;SDS011;4667;42.726;23.252;2022-10-31T01:19:19;4.43;;;2.57;;
9260;SDS011;4667;42.726;23.252;2022-10-31T01:21:47;4.43;;;2.60;;
9260;SDS011;4667;42.726;23.252;2022-10-31T01:24:14;8.07;;;3.17;;
9260;SDS011;4667;42.726;23.252;2022-10-31T01:26:40;6.10;;;3.20;;
9260;SDS011;4667;42.726;23.252;2022-10-31T01:29:07;9.57;;;4.50;;
9260;SDS011;4667;42.726;23.252;2022-10-31T01:31:34;5.03;;;3.07;;
9260;SDS011;4667;42.726;23.252;2022-10-31T01:34:03;4.73;;;2.97;;
9260;SDS011;4667;42.726;23.252;2022-10-31T01:36:32;5.47;;;3.80;;
9260;SDS011;4667;42.726;23.252;2022-10-31T01:39:03;5.93;;;3.43;;
9260;SDS011;4667;42.726;23.252;2022-10-31T01:41:33;3.63;;;3.00;;
9260;SDS011;4667;42.726;23.252;2022-10-31T01:44:01;5.13;;;3.40;;
9260;SDS011;4667;42.726;23.252;2022-10-31T01:46:49;2.60;;;2.20;;
9260;SDS011;4667;42.726;23.252;2022-10-31T01:49:21;3.80;;;2.87;;
9260;SDS011;4667;42.726;23.252;2022-10-31T01:51:51;3.83;;;3.10;;
9260;SDS011;4667;42.726;23.252;2022-10-31T01:54:24;5.63;;;3.10;;
9260;SDS011;4667;42.726;23.252;2022-10-31T01:56:56;3.53;;;3.13;;
9260;SDS011;4667;42.726;23.252;2022-10-31T01:59:24;4.77;;;3.03;;
9260;SDS011;4667;42.726;23.252;2022-10-31T02:01:56;5.90;;;3.40;;
9260;SDS011;4667;42.726;23.252;2022-10-31T02:04:23;5.07;;;3.30;;
9260;SDS011;4667;42.726;23.252;2022-10-31T02:06:55;5.57;;;3.10;;
9260;SDS011;4667;42.726;23.252;2022-10-31T02:09:26;4.40;;;2.83;;
9260;SDS011;4667;42.726;23.252;2022-10-31T02:11:57;3.73;;;3.33;;
9260;SDS011;4667;42.726;23.252;2022-10-31T02:14:25;3.67;;;2.63;;
9260;SDS011;4667;42.726;23.252;2022-10-31T02:16:55;4.73;;;2.97;;
9260;SDS011;4667;42.726;23.252;2022-10-31T02:19:24;3.47;;;3.00;;
9260;SDS011;4667;42.726;23.252;2022-10-31T02:21:59;5.20;;;3.20;;
9260;SDS011;4667;42.726;23.252;2022-10-31T02:24:46;3.93;;;3.20;;
9260;SDS011;4667;42.726;23.252;2022-10-31T02:27:41;4.13;;;3.03;;
9260;SDS011;4667;42.726;23.252;2022-10-31T02:33:29;6.03;;;3.27;;
9260;SDS011;4667;42.726;23.252;2022-10-31T02:36:16;3.70;;;3.20;;
9260;SDS011;4667;42.726;23.252;2022-10-31T02:39:11;5.63;;;3.10;;
9260;SDS011;4667;42.726;23.252;2022-10-31T02:41:52;4.20;;;3.27;;
9260;SDS011;4667;42.726;23.252;2022-10-31T02:44:32;4.47;;;3.13;;
9260;SDS011;4667;42.726;23.252;2022-10-31T02:47:08;4.23;;;3.17;;
9260;SDS011;4667;42.726;23.252;2022-10-31T02:49:39;8.57;;;4.57;;
9260;SDS011;4667;42.726;23.252;2022-10-31T02:52:14;5.57;;;3.03;;
9260;SDS011;4667;42.726;23.252;2022-10-31T02:54:43;5.07;;;3.60;;
9260;SDS011;4667;42.726;23.252;2022-10-31T02:57:11;7.03;;;3.03;;
9260;SDS011;4667;42.726;23.252;2022-10-31T02:59:41;3.50;;;2.87;;
9260;SDS011;4667;42.726;23.252;2022-10-31T03:02:24;7.27;;;3.67;;
9260;SDS011;4667;42.726;23.252;2022-10-31T03:05:08;5.23;;;3.60;;
9260;SDS011;4667;42.726;23.252;2022-10-31T03:07:47;6.13;;;3.23;;
9260;SDS011;4667;42.726;23.252;2022-10-31T03:10:23;4.33;;;3.80;;
9260;SDS011;4667;42.726;23.252;2022-10-31T03:12:59;5.13;;;3.50;;
9260;SDS011;4667;42.726;23.252;2022-10-31T03:15:33;7.50;;;3.90;;
9260;SDS011;4667;42.726;23.252;2022-10-31T03:18:06;6.33;;;3.97;;
9260;SDS011;4667;42.726;23.252;2022-10-31T03:20:36;9.70;;;3.70;;
9260;SDS011;4667;42.726;23.252;2022-10-31T03:23:06;4.93;;;3.23;;
9260;SDS011;4667;42.726;23.252;2022-10-31T03:25:38;5.27;;;3.47;;
9260;SDS011;4667;42.726;23.252;2022-10-31T03:28:06;4.63;;;2.90;;
9260;SDS011;4667;42.726;23.252;2022-10-31T03:30:36;5.17;;;3.80;;
9260;SDS011;4667;42.726;23.252;2022-10-31T03:33:09;5.07;;;3.97;;
9260;SDS011;4667;42.726;23.252;2022-10-31T03:35:40;4.73;;;3.40;;
9260;SDS011;4667;42.726;23.252;2022-10-31T03:38:11;5.27;;;3.33;;
9260;SDS011;4667;42.726;23.252;2022-10-31T03:40:39;7.50;;;3.67;;
9260;SDS011;4667;42.726;23.252;2022-10-31T03:43:10;5.10;;;3.50;;
9260;SDS011;4667;42.726;23.252;2022-10-31T03:45:43;5.10;;;3.53;;
9260;SDS011;4667;42.726;23.252;2022-10-31T03:48:13;5.43;;;3.77;;
9260;SDS011;4667;42.726;23.252;2022-10-31T03:50:45;3.93;;;3.23;;
9260;SDS011;4667;42.726;23.252;2022-10-31T03:53:19;6.23;;;3.53;;
9260;SDS011;4667;42.726;23.252;2022-10-31T03:55:52;4.00;;;3.53;;
9260;SDS011;4667;42.726;23.252;2022-10-31T03:58:25;7.20;;;4.47;;
9260;SDS011;4667;42.726;23.252;2022-10-31T04:00:57;8.87;;;4.23;;
9260;SDS011;4667;42.726;23.252;2022-10-31T04:03:33;6.27;;;4.47;;
9260;SDS011;4667;42.726;23.252;2022-10-31T04:06:05;9.67;;;4.40;;
9260;SDS011;4667;42.726;23.252;2022-10-31T04:08:38;5.73;;;4.07;;
9260;SDS011;4667;42.726;23.252;2022-10-31T04:11:08;7.77;;;4.50;;
9260;SDS011;4667;42.726;23.252;2022-10-31T04:13:38;9.10;;;4.53;;
9260;SDS011;4667;42.726;23.252;2022-10-31T04:16:08;6.93;;;4.17;;
9260;SDS011;4667;42.726;23.252;2022-10-31T04:18:37;9.17;;;4.80;;
9260;SDS011;4667;42.726;23.252;2022-10-31T04:21:05;6.20;;;4.43;;
9260;SDS011;4667;42.726;23.252;2022-10-31T04:23:33;6.17;;;4.70;;
9260;SDS011;4667;42.726;23.252;2022-10-31T04:26:01;5.40;;;4.50;;
9260;SDS011;4667;42.726;23.252;2022-10-31T04:28:28;6.67;;;3.80;;
9260;SDS011;4667;42.726;23.252;2022-10-31T04:30:55;5.17;;;4.00;;
9260;SDS011;4667;42.726;23.252;2022-10-31T04:33:22;6.53;;;4.27;;
9260;SDS011;4667;42.726;23.252;2022-10-31T04:35:50;7.13;;;5.43;;
9260;SDS011;4667;42.726;23.252;2022-10-31T04:38:17;8.30;;;5.33;;
9260;SDS011;4667;42.726;23.252;2022-10-31T04:40:44;9.03;;;4.63;;
9260;SDS011;4667;42.726;23.252;2022-10-31T04:43:11;7.30;;;4.40;;
9260;SDS011;4667;42.726;23.252;2022-10-31T04:45:38;5.87;;;4.60;;
9260;SDS011;4667;42.726;23.252;2022-10-31T04:48:05;5.90;;;3.97;;
9260;SDS011;4667;42.726;23.252;2022-10-31T04:50:31;7.30;;;4.53;;
9260;SDS011;4667;42.726;23.252;2022-10-31T04:52:59;5.80;;;3.73;;
9260;SDS011;4667;42.726;23.252;2022-10-31T04:55:26;9.40;;;4.90;;
9260;SDS011;4667;42.726;23.252;2022-10-31T04:57:53;8.63;;;4.40;;
9260;SDS011;4667;42.726;23.252;2022-10-31T05:00:20;7.97;;;5.17;;
9260;SDS011;4667;42.726;23.252;2022-10-31T05:02:49;5.60;;;4.33;;
9260;SDS011;4667;42.726;23.252;2022-10-31T05:05:18;7.70;;;4.70;;
9260;SDS011;4667;42.726;23.252;2022-10-31T05:07:47;8.13;;;5.40;;
9260;SDS011;4667;42.726;23.252;2022-10-31T05:10:16;10.97;;;5.13;;
9260;SDS011;4667;42.726;23.252;2022-10-31T05:12:47;8.53;;;5.43;;
9260;SDS011;4667;42.726;23.252;2022-10-31T05:15:15;9.20;;;4.90;;
9260;SDS011;4667;42.726;23.252;2022-10-31T05:17:43;11.73;;;5.00;;
9260;SDS011;4667;42.726;23.252;2022-10-31T05:20:10;5.73;;;4.13;;
9260;SDS011;4667;42.726;23.252;2022-10-31T05:22:41;8.33;;;4.90;;
9260;SDS011;4667;42.726;23.252;2022-10-31T05:25:08;11.77;;;4.73;;
9260;SDS011;4667;42.726;23.252;2022-10-31T05:27:39;8.70;;;4.27;;
9260;SDS011;4667;42.726;23.252;2022-10-31T05:30:06;6.77;;;5.30;;
9260;SDS011;4667;42.726;23.252;2022-10-31T05:32:36;9.80;;;5.57;;
9260;SDS011;4667;42.726;23.252;2022-10-31T05:35:04;10.70;;;4.77;;
9260;SDS011;4667;42.726;23.252;2022-10-31T05:37:33;6.27;;;4.97;;
9260;SDS011;4667;42.726;23.252;2022-10-31T05:40:00;8.73;;;5.80;;
9260;SDS011;4667;42.726;23.252;2022-10-31T05:42:27;9.53;;;6.07;;
9260;SDS011;4667;42.726;23.252;2022-10-31T05:44:55;7.87;;;5.50;;
9260;SDS011;4667;42.726;23.252;2022-10-31T05:47:21;8.07;;;4.70;;
9260;SDS011;4667;42.726;23.252;2022-10-31T05:49:48;9.53;;;5.00;;
9260;SDS011;4667;42.726;23.252;2022-10-31T05:52:15;7.57;;;5.37;;
9260;SDS011;4667;42.726;23.252;2022-10-31T05:54:42;8.47;;;5.60;;
9260;SDS011;4667;42.726;23.252;2022-10-31T05:57:09;7.77;;;5.47;;
9260;SDS011;4667;42.726;23.252;2022-10-31T05:59:36;10.07;;;5.83;;
9260;SDS011;4667;42.726;23.252;2022-10-31T06:02:04;13.97;;;6.50;;
9260;SDS011;4667;42.726;23.252;2022-10-31T06:04:31;12.60;;;5.67;;
9260;SDS011;4667;42.726;23.252;2022-10-31T06:06:58;14.00;;;7.43;;
9260;SDS011;4667;42.726;23.252;2022-10-31T06:09:24;7.23;;;6.20;;
9260;SDS011;4667;42.726;23.252;2022-10-31T06:11:51;9.63;;;6.40;;
9260;SDS011;4667;42.726;23.252;2022-10-31T06:14:20;8.70;;;5.70;;
9260;SDS011;4667;42.726;23.252;2022-10-31T06:16:46;9.20;;;5.07;;
9260;SDS011;4667;42.726;23.252;2022-10-31T06:19:15;9.07;;;5.43;;
9260;SDS011;4667;42.726;23.252;2022-10-31T06:21:41;10.13;;;6.33;;
9260;SDS011;4667;42.726;23.252;2022-10-31T06:24:08;8.67;;;6.50;;
9260;SDS011;4667;42.726;23.252;2022-10-31T06:26:35;6.97;;;5.27;;
9260;SDS011;4667;42.726;23.252;2022-10-31T06:29:02;8.07;;;5.50;;
9260;SDS011;4667;42.726;23.252;2022-10-31T06:31:34;8.00;;;5.23;;
9260;SDS011;4667;42.726;23.252;2022-10-31T06:34:01;13.73;;;6.00;;
9260;SDS011;4667;42.726;23.252;2022-10-31T06:36:29;5.77;;;5.03;;
9260;SDS011;4667;42.726;23.252;2022-10-31T06:38:56;10.33;;;6.73;;
9260;SDS011;4667;42.726;23.252;2022-10-31T06:41:25;8.20;;;5.67;;
9260;SDS011;4667;42.726;23.252;2022-10-31T06:43:52;9.97;;;5.53;;
9260;SDS011;4667;42.726;23.252;2022-10-31T06:46:19;9.20;;;6.00;;
9260;SDS011;4667;42.726;23.252;2022-10-31T06:48:46;6.47;;;5.20;;
9260;SDS011;4667;42.726;23.252;2022-10-31T06:51:13;7.60;;;5.60;;
9260;SDS011;4667;42.726;23.252;2022-10-31T06:53:42;9.20;;;6.43;;
9260;SDS011;4667;42.726;23.252;2022-10-31T06:56:09;15.60;;;5.70;;
9260;SDS011;4667;42.726;23.252;2022-10-31T06:58:36;8.80;;;5.33;;
9260;SDS011;4667;42.726;23.252;2022-10-31T07:01:03;11.00;;;5.83;;
9260;SDS011;4667;42.726;23.252;2022-10-31T07:03:29;8.73;;;5.57;;
9260;SDS011;4667;42.726;23.252;2022-10-31T07:05:56;9.07;;;5.47;;
9260;SDS011;4667;42.726;23.252;2022-10-31T07:08:23;11.10;;;5.93;;
9260;SDS011;4667;42.726;23.252;2022-10-31T07:10:54;8.57;;;5.30;;
9260;SDS011;4667;42.726;23.252;2022-10-31T07:13:23;7.80;;;5.57;;
9260;SDS011;4667;42.726;23.252;2022-10-31T07:15:51;9.37;;;6.27;;
9260;SDS011;4667;42.726;23.252;2022-10-31T07:18:19;9.97;;;6.27;;
9260;SDS011;4667;42.726;23.252;2022-10-31T07:20:47;10.18;;;6.65;;
9260;SDS011;4667;42.726;23.252;2022-10-31T07:23:14;12.57;;;8.30;;
9260;SDS011;4667;42.726;23.252;2022-10-31T07:25:40;9.88;;;6.75;;
9260;SDS011;4667;42.726;23.252;2022-10-31T07:28:09;16.13;;;7.28;;
9260;SDS011;4667;42.726;23.252;2022-10-31T07:30:39;8.90;;;5.95;;
9260;SDS011;4667;42.726;23.252;2022-10-31T07:33:06;9.30;;;6.63;;
9260;SDS011;4667;42.726;23.252;2022-10-31T07:35:37;11.05;;;6.15;;
9260;SDS011;4667;42.726;23.252;2022-10-31T07:38:08;11.52;;;6.00;;
9260;SDS011;4667;42.726;23.252;2022-10-31T07:40:35;10.05;;;6.70;;
9260;SDS011;4667;42.726;23.252;2022-10-31T07:43:02;9.27;;;6.15;;
9260;SDS011;4667;42.726;23.252;2022-10-31T07:45:32;9.98;;;6.35;;
9260;SDS011;4667;42.726;23.252;2022-10-31T07:47:59;10.75;;;6.43;;
9260;SDS011;4667;42.726;23.252;2022-10-31T07:50:28;11.45;;;6.28;;
9260;SDS011;4667;42.726;23.252;2022-10-31T07:53:02;9.63;;;6.15;;
9260;SDS011;4667;42.726;23.252;2022-10-31T07:55:36;10.30;;;6.35;;
9260;SDS011;4667;42.726;23.252;2022-10-31T07:58:04;9.32;;;6.53;;
9260;SDS011;4667;42.726;23.252;2022-10-31T08:00:36;9.68;;;6.38;;
9260;SDS011;4667;42.726;23.252;2022-10-31T08:03:04;10.85;;;6.38;;
9260;SDS011;4667;42.726;23.252;2022-10-31T08:05:32;11.13;;;6.05;;
9260;SDS011;4667;42.726;23.252;2022-10-31T08:08:00;9.50;;;6.53;;
9260;SDS011;4667;42.726;23.252;2022-10-31T08:10:27;8.45;;;5.35;;
9260;SDS011;4667;42.726;23.252;2022-10-31T08:12:54;8.20;;;5.65;;
9260;SDS011;4667;42.726;23.252;2022-10-31T08:15:22;8.45;;;5.95;;
9260;SDS011;4667;42.726;23.252;2022-10-31T08:17:51;6.78;;;5.20;;
9260;SDS011;4667;42.726;23.252;2022-10-31T08:20:18;13.02;;;6.07;;
9260;SDS011;4667;42.726;23.252;2022-10-31T08:22:52;8.68;;;5.97;;
9260;SDS011;4667;42.726;23.252;2022-10-31T08:25:20;8.23;;;5.28;;
9260;SDS011;4667;42.726;23.252;2022-10-31T08:27:49;10.18;;;6.00;;
9260;SDS011;4667;42.726;23.252;2022-10-31T08:30:17;6.43;;;4.93;;
9260;SDS011;4667;42.726;23.252;2022-10-31T08:32:44;9.95;;;5.47;;
9260;SDS011;4667;42.726;23.252;2022-10-31T08:35:12;7.15;;;5.18;;
9260;SDS011;4667;42.726;23.252;2022-10-31T08:37:39;8.50;;;5.55;;
9260;SDS011;4667;42.726;23.252;2022-10-31T08:40:06;7.70;;;5.47;;
9260;SDS011;4667;42.726;23.252;2022-10-31T08:42:33;7.82;;;5.65;;
9260;SDS011;4667;42.726;23.252;2022-10-31T08:45:00;8.48;;;5.35;;
9260;SDS011;4667;42.726;23.252;2022-10-31T08:47:27;8.48;;;5.82;;
9260;SDS011;4667;42.726;23.252;2022-10-31T08:49:54;10.88;;;6.15;;
9260;SDS011;4667;42.726;23.252;2022-10-31T08:52:23;10.23;;;5.97;;
9260;SDS011;4667;42.726;23.252;2022-10-31T08:54:51;16.42;;;5.22;;
9260;SDS011;4667;42.726;23.252;2022-10-31T08:57:18;8.77;;;5.38;;
9260;SDS011;4667;42.726;23.252;2022-10-31T08:59:45;9.75;;;5.32;;
9260;SDS011;4667;42.726;23.252;2022-10-31T09:02:12;9.85;;;5.40;;
9260;SDS011;4667;42.726;23.252;2022-10-31T09:04:38;10.45;;;5.28;;
9260;SDS011;4667;42.726;23.252;2022-10-31T09:07:05;7.32;;;4.57;;
9260;SDS011;4667;42.726;23.252;2022-10-31T09:09:33;7.43;;;4.82;;
9260;SDS011;4667;42.726;23.252;2022-10-31T09:12:02;6.93;;;4.97;;
9260;SDS011;4667;42.726;23.252;2022-10-31T09:14:29;8.30;;;4.82;;
9260;SDS011;4667;42.726;23.252;2022-10-31T09:16:56;5.30;;;4.00;;
9260;SDS011;4667;42.726;23.252;2022-10-31T09:19:22;8.70;;;4.35;;
9260;SDS011;4667;42.726;23.252;2022-10-31T09:21:51;11.27;;;4.10;;
9260;SDS011;4667;42.726;23.252;2022-10-31T09:24:21;11.68;;;5.07;;
9260;SDS011;4667;42.726;23.252;2022-10-31T09:26:53;8.48;;;4.43;;
9260;SDS011;4667;42.726;23.252;2022-10-31T09:29:22;4.55;;;3.78;;
9260;SDS011;4667;42.726;23.252;2022-10-31T09:31:52;6.68;;;4.10;;
9260;SDS011;4667;42.726;23.252;2022-10-31T09:34:19;5.82;;;4.03;;
9260;SDS011;4667;42.726;23.252;2022-10-31T09:36:45;7.40;;;3.92;;
9260;SDS011;4667;42.726;23.252;2022-10-31T09:39:12;5.80;;;3.33;;
9260;SDS011;4667;42.726;23.252;2022-10-31T09:41:46;4.53;;;2.92;;
9260;SDS011;4667;42.726;23.252;2022-10-31T09:44:26;5.15;;;3.25;;
9260;SDS011;4667;42.726;23.252;2022-10-31T09:47:00;6.30;;;3.38;;
9260;SDS011;4667;42.726;23.252;2022-10-31T09:49:41;4.43;;;3.47;;
9260;SDS011;4667;42.726;23.252;2022-10-31T09:52:22;7.75;;;3.67;;
9260;SDS011;4667;42.726;23.252;2022-10-31T09:54:53;3.88;;;3.30;;
9260;SDS011;4667;42.726;23.252;2022-10-31T09:57:27;3.55;;;2.80;;
9260;SDS011;4667;42.726;23.252;2022-10-31T09:59:56;15.27;;;3.95;;
9260;SDS011;4667;42.726;23.252;2022-10-31T10:02:30;7.60;;;3.20;;
9260;SDS011;4667;42.726;23.252;2022-10-31T10:05:04;5.68;;;2.60;;
9260;SDS011;4667;42.726;23.252;2022-10-31T10:07:35;3.85;;;3.38;;
9260;SDS011;4667;42.726;23.252;2022-10-31T10:10:13;7.05;;;3.40;;
9260;SDS011;4667;42.726;23.252;2022-10-31T10:12:50;4.20;;;3.03;;
9260;SDS011;4667;42.726;23.252;2022-10-31T10:15:39;4.05;;;3.10;;
9260;SDS011;4667;42.726;23.252;2022-10-31T10:18:19;3.88;;;2.78;;
9260;SDS011;4667;42.726;23.252;2022-10-31T10:20:58;4.32;;;3.20;;
9260;SDS011;4667;42.726;23.252;2022-10-31T10:23:35;4.82;;;2.35;;
9260;SDS011;4667;42.726;23.252;2022-10-31T10:26:12;6.18;;;2.63;;
9260;SDS011;4667;42.726;23.252;2022-10-31T10:28:44;3.53;;;2.35;;
9260;SDS011;4667;42.726;23.252;2022-10-31T10:31:14;6.00;;;3.22;;
9260;SDS011;4667;42.726;23.252;2022-10-31T10:33:43;4.90;;;2.83;;
9260;SDS011;4667;42.726;23.252;2022-10-31T10:36:17;14.18;;;2.63;;
9260;SDS011;4667;42.726;23.252;2022-10-31T10:38:49;5.07;;;2.30;;
9260;SDS011;4667;42.726;23.252;2022-10-31T10:41:19;3.83;;;2.53;;
9260;SDS011;4667;42.726;23.252;2022-10-31T10:43:50;2.53;;;2.22;;
9260;SDS011;4667;42.726;23.252;2022-10-31T10:46:17;3.38;;;2.72;;
9260;SDS011;4667;42.726;23.252;2022-10-31T10:49:05;2.72;;;2.03;;
9260;SDS011;4667;42.726;23.252;2022-10-31T10:51:40;4.20;;;2.10;;
9260;SDS011;4667;42.726;23.252;2022-10-31T10:54:14;2.92;;;2.25;;
9260;SDS011;4667;42.726;23.252;2022-10-31T10:56:53;4.60;;;2.38;;
9260;SDS011;4667;42.726;23.252;2022-10-31T10:59:29;3.72;;;2.33;;
9260;SDS011;4667;42.726;23.252;2022-10-31T11:01:57;3.85;;;2.70;;
9260;SDS011;4667;42.726;23.252;2022-10-31T11:04:26;5.75;;;1.98;;
9260;SDS011;4667;42.726;23.252;2022-10-31T11:06:56;2.03;;;1.75;;
9260;SDS011;4667;42.726;23.252;2022-10-31T11:09:24;3.45;;;2.63;;
9260;SDS011;4667;42.726;23.252;2022-10-31T11:11:51;4.00;;;2.50;;
9260;SDS011;4667;42.726;23.252;2022-10-31T11:14:20;3.05;;;1.90;;
9260;SDS011;4667;42.726;23.252;2022-10-31T11:16:49;2.90;;;2.00;;
9260;SDS011;4667;42.726;23.252;2022-10-31T11:19:20;4.95;;;2.45;;
9260;SDS011;4667;42.726;23.252;2022-10-31T11:21:49;3.88;;;2.13;;
9260;SDS011;4667;42.726;23.252;2022-10-31T11:24:16;3.28;;;2.05;;
9260;SDS011;4667;42.726;23.252;2022-10-31T11:26:45;2.90;;;1.88;;
9260;SDS011;4667;42.726;23.252;2022-10-31T11:29:14;1.83;;;1.58;;
9260;SDS011;4667;42.726;23.252;2022-10-31T11:31:44;3.67;;;1.95;;
9260;SDS011;4667;42.726;23.252;2022-10-31T11:34:16;3.67;;;2.10;;
9260;SDS011;4667;42.726;23.252;2022-10-31T11:37:03;2.72;;;1.92;;
9260;SDS011;4667;42.726;23.252;2022-10-31T11:39:39;4.55;;;2.17;;
9260;SDS011;4667;42.726;23.252;2022-10-31T11:42:09;5.45;;;2.30;;
9260;SDS011;4667;42.726;23.252;2022-10-31T11:44:36;3.13;;;1.77;;
9260;SDS011;4667;42.726;23.252;2022-10-31T11:47:09;4.32;;;2.20;;
9260;SDS011;4667;42.726;23.252;2022-10-31T11:49:42;3.03;;;2.00;;
9260;SDS011;4667;42.726;23.252;2022-10-31T11:52:12;3.78;;;2.00;;
9260;SDS011;4667;42.726;23.252;2022-10-31T11:54:44;2.10;;;1.63;;
9260;SDS011;4667;42.726;23.252;2022-10-31T11:57:27;3.40;;;2.05;;
9260;SDS011;4667;42.726;23.252;2022-10-31T11:59:56;5.30;;;2.15;;
9260;SDS011;4667;42.726;23.252;2022-10-31T12:02:24;2.28;;;2.00;;
9260;SDS011;4667;42.726;23.252;2022-10-31T12:04:55;2.33;;;1.67;;
9260;SDS011;4667;42.726;23.252;2022-10-31T12:07:27;4.07;;;2.28;;
9260;SDS011;4667;42.726;23.252;2022-10-31T12:09:56;2.97;;;2.30;;
9260;SDS011;4667;42.726;23.252;2022-10-31T12:12:35;3.72;;;2.35;;
9260;SDS011;4667;42.726;23.252;2022-10-31T12:15:17;2.53;;;1.80;;
9260;SDS011;4667;42.726;23.252;2022-10-31T12:17:55;2.92;;;2.30;;
9260;SDS011;4667;42.726;23.252;2022-10-31T12:20:38;5.93;;;2.78;;
9260;SDS011;4667;42.726;23.252;2022-10-31T12:23:15;2.90;;;1.90;;
9260;SDS011;4667;42.726;23.252;2022-10-31T12:25:50;2.42;;;1.90;;
9260;SDS011;4667;42.726;23.252;2022-10-31T12:28:28;4.53;;;2.20;;
9260;SDS011;4667;42.726;23.252;2022-10-31T12:31:10;3.22;;;1.95;;
9260;SDS011;4667;42.726;23.252;2022-10-31T12:33:51;3.67;;;2.50;;
9260;SDS011;4667;42.726;23.252;2022-10-31T12:36:34;3.08;;;1.75;;
9260;SDS011;4667;42.726;23.252;2022-10-31T12:39:17;6.55;;;2.10;;
9260;SDS011;4667;42.726;23.252;2022-10-31T12:41:51;3.53;;;2.20;;
9260;SDS011;4667;42.726;23.252;2022-10-31T12:44:36;4.25;;;1.92;;
9260;SDS011;4667;42.726;23.252;2022-10-31T12:50:22;1.98;;;1.75;;
9260;SDS011;4667;42.726;23.252;2022-10-31T12:53:01;3.00;;;1.65;;
9260;SDS011;4667;42.726;23.252;2022-10-31T12:55:47;3.95;;;2.10;;
9260;SDS011;4667;42.726;23.252;2022-10-31T12:58:23;2.92;;;1.80;;
9260;SDS011;4667;42.726;23.252;2022-10-31T13:00:55;3.42;;;2.03;;
9260;SDS011;4667;42.726;23.252;2022-10-31T13:03:32;2.33;;;1.90;;
9260;SDS011;4667;42.726;23.252;2022-10-31T13:06:05;4.60;;;2.63;;
9260;SDS011;4667;42.726;23.252;2022-10-31T13:08:38;2.88;;;2.00;;
9260;SDS011;4667;42.726;23.252;2022-10-31T13:11:10;2.55;;;1.73;;
9260;SDS011;4667;42.726;23.252;2022-10-31T13:13:40;3.03;;;2.20;;
9260;SDS011;4667;42.726;23.252;2022-10-31T13:16:12;2.60;;;1.80;;
9260;SDS011;4667;42.726;23.252;2022-10-31T13:18:44;3.55;;;1.80;;
9260;SDS011;4667;42.726;23.252;2022-10-31T13:21:16;3.30;;;2.05;;
9260;SDS011;4667;42.726;23.252;2022-10-31T13:23:51;2.67;;;1.63;;
9260;SDS011;4667;42.726;23.252;2022-10-31T13:26:30;2.72;;;1.90;;
9260;SDS011;4667;42.726;23.252;2022-10-31T13:29:05;3.83;;;1.80;;
9260;SDS011;4667;42.726;23.252;2022-10-31T13:31:39;3.30;;;1.92;;
9260;SDS011;4667;42.726;23.252;2022-10-31T13:34:09;5.47;;;1.88;;
9260;SDS011;4667;42.726;23.252;2022-10-31T13:36:47;4.15;;;2.00;;
9260;SDS011;4667;42.726;23.252;2022-10-31T13:39:23;2.90;;;1.95;;
9260;SDS011;4667;42.726;23.252;2022-10-31T13:41:59;2.72;;;2.20;;
9260;SDS011;4667;42.726;23.252;2022-10-31T13:44:32;4.03;;;2.03;;
9260;SDS011;4667;42.726;23.252;2022-10-31T13:47:02;3.58;;;1.58;;
9260;SDS011;4667;42.726;23.252;2022-10-31T13:49:36;3.95;;;2.17;;
9260;SDS011;4667;42.726;23.252;2022-10-31T13:52:05;3.17;;;1.27;;
9260;SDS011;4667;42.726;23.252;2022-10-31T13:54:41;3.30;;;1.55;;
9260;SDS011;4667;42.726;23.252;2022-10-31T13:57:14;1.27;;;0.85;;
9260;SDS011;4667;42.726;23.252;2022-10-31T13:59:46;4.18;;;1.60;;
9260;SDS011;4667;42.726;23.252;2022-10-31T14:02:16;3.95;;;1.35;;
9260;SDS011;4667;42.726;23.252;2022-10-31T14:04:44;1.13;;;0.90;;
9260;SDS011;4667;42.726;23.252;2022-10-31T14:07:15;3.55;;;1.65;;
9260;SDS011;4667;42.726;23.252;2022-10-31T14:09:50;5.18;;;1.80;;
9260;SDS011;4667;42.726;23.252;2022-10-31T14:12:25;3.08;;;1.77;;
9260;SDS011;4667;42.726;23.252;2022-10-31T14:14:57;3.03;;;1.98;;
9260;SDS011;4667;42.726;23.252;2022-10-31T14:17:33;2.60;;;1.33;;
9260;SDS011;4667;42.726;23.252;2022-10-31T14:20:33;2.22;;;1.05;;
9260;SDS011;4667;42.726;23.252;2022-10-31T14:23:12;5.43;;;1.42;;
9260;SDS011;4667;42.726;23.252;2022-10-31T14:26:07;1.00;;;0.90;;
9260;SDS011;4667;42.726;23.252;2022-10-31T14:28:47;1.67;;;1.23;;
9260;SDS011;4667;42.726;23.252;2022-10-31T14:31:26;2.25;;;1.05;;
9260;SDS011;4667;42.726;23.252;2022-10-31T14:33:57;2.55;;;1.40;;
9260;SDS011;4667;42.726;23.252;2022-10-31T14:36:25;2.47;;;0.90;;
9260;SDS011;4667;42.726;23.252;2022-10-31T14:39:04;5.07;;;1.08;;
9260;SDS011;4667;42.726;23.252;2022-10-31T14:41:45;1.73;;;1.33;;
9260;SDS011;4667;42.726;23.252;2022-10-31T14:47:36;3.40;;;1.23;;
9260;SDS011;4667;42.726;23.252;2022-10-31T14:50:17;2.25;;;1.67;;
9260;SDS011;4667;42.726;23.252;2022-10-31T14:52:52;2.72;;;1.27;;
9260;SDS011;4667;42.726;23.252;2022-10-31T14:55:24;2.83;;;1.27;;
9260;SDS011;4667;42.726;23.252;2022-10-31T14:57:54;2.20;;;1.08;;
9260;SDS011;4667;42.726;23.252;2022-10-31T15:00:23;2.65;;;1.58;;
9260;SDS011;4667;42.726;23.252;2022-10-31T15:02:56;4.85;;;1.27;;
9260;SDS011;4667;42.726;23.252;2022-10-31T15:05:31;2.72;;;1.38;;
9260;SDS011;4667;42.726;23.252;2022-10-31T15:08:00;4.18;;;1.60;;
9260;SDS011;4667;42.726;23.252;2022-10-31T15:10:36;4.95;;;1.25;;
9260;SDS011;4667;42.726;23.252;2022-10-31T15:13:14;3.58;;;1.50;;
9260;SDS011;4667;42.726;23.252;2022-10-31T15:15:45;5.18;;;1.45;;
9260;SDS011;4667;42.726;23.252;2022-10-31T15:18:14;2.53;;;1.40;;
9260;SDS011;4667;42.726;23.252;2022-10-31T15:20:43;4.97;;;1.58;;
9260;SDS011;4667;42.726;23.252;2022-10-31T15:23:14;4.95;;;2.00;;
9260;SDS011;4667;42.726;23.252;2022-10-31T15:25:44;2.28;;;1.85;;
9260;SDS011;4667;42.726;23.252;2022-10-31T15:28:14;4.93;;;2.85;;
9260;SDS011;4667;42.726;23.252;2022-10-31T15:30:50;5.97;;;2.60;;
9260;SDS011;4667;42.726;23.252;2022-10-31T15:33:21;4.97;;;2.28;;